sensor_id;sensor_type;location;lat;lon;timestamp;P1;durP1;ratioP1;P2;durP2;ratioP2
25249;SDS011;13201;51.148;13.738;2023-03-12T00:01:28;4.68;;;2.40;;
25249;SDS011;13201;51.148;13.738;2023-03-12T00:03:57;4.07;;;2.22;;
25249;SDS011;13201;51.148;13.738;2023-03-12T00:06:25;4.20;;;2.08;;
25249;SDS011;13201;51.148;13.738;2023-03-12T00:08:51;4.77;;;2.03;;
25249;SDS011;13201;51.148;13.738;2023-03-12T00:11:18;3.97;;;2.07;;
25249;SDS011;13201;51.148;13.738;2023-03-12T00:13:54;3.47;;;1.90;;
25249;SDS011;13201;51.148;13.738;2023-03-12T00:18:48;5.85;;;2.35;;
25249;SDS011;13201;51.148;13.738;2023-03-12T00:21:14;4.40;;;2.00;;
25249;SDS011;13201;51.148;13.738;2023-03-12T00:23:40;6.03;;;2.20;;
25249;SDS011;13201;51.148;13.738;2023-03-12T00:26:07;6.43;;;1.90;;
25249;SDS011;13201;51.148;13.738;2023-03-12T00:28:35;3.50;;;1.92;;
25249;SDS011;13201;51.148;13.738;2023-03-12T00:31:18;3.65;;;1.70;;
25249;SDS011;13201;51.148;13.738;2023-03-12T00:33:46;3.85;;;1.92;;
25249;SDS011;13201;51.148;13.738;2023-03-12T00:36:14;6.63;;;2.65;;
25249;SDS011;13201;51.148;13.738;2023-03-12T00:38:41;6.18;;;2.00;;
25249;SDS011;13201;51.148;13.738;2023-03-12T00:41:07;5.87;;;2.23;;
25249;SDS011;13201;51.148;13.738;2023-03-12T00:43:32;3.92;;;1.95;;
25249;SDS011;13201;51.148;13.738;2023-03-12T00:45:58;3.30;;;1.23;;
25249;SDS011;13201;51.148;13.738;2023-03-12T00:48:24;5.23;;;2.13;;
25249;SDS011;13201;51.148;13.738;2023-03-12T00:50:50;5.23;;;2.03;;
25249;SDS011;13201;51.148;13.738;2023-03-12T00:53:15;4.10;;;1.83;;
25249;SDS011;13201;51.148;13.738;2023-03-12T00:55:41;4.40;;;2.35;;
25249;SDS011;13201;51.148;13.738;2023-03-12T00:58:07;4.90;;;2.00;;
25249;SDS011;13201;51.148;13.738;2023-03-12T01:00:32;4.75;;;1.50;;
25249;SDS011;13201;51.148;13.738;2023-03-12T01:02:58;8.25;;;1.85;;
25249;SDS011;13201;51.148;13.738;2023-03-12T01:30:55;4.68;;;1.88;;
25249;SDS011;13201;51.148;13.738;2023-03-12T01:33:20;9.60;;;2.20;;
25249;SDS011;13201;51.148;13.738;2023-03-12T01:35:47;5.23;;;2.10;;
25249;SDS011;13201;51.148;13.738;2023-03-12T01:38:13;8.73;;;2.17;;
25249;SDS011;13201;51.148;13.738;2023-03-12T01:40:40;4.70;;;1.90;;
25249;SDS011;13201;51.148;13.738;2023-03-12T01:43:18;5.15;;;1.80;;
25249;SDS011;13201;51.148;13.738;2023-03-12T01:46:29;4.20;;;1.50;;
25249;SDS011;13201;51.148;13.738;2023-03-12T01:48:44;5.25;;;1.33;;
25249;SDS011;13201;51.148;13.738;2023-03-12T01:51:15;2.92;;;1.52;;
25249;SDS011;13201;51.148;13.738;2023-03-12T01:53:44;4.38;;;2.00;;
25249;SDS011;13201;51.148;13.738;2023-03-12T01:56:12;5.00;;;1.70;;
25249;SDS011;13201;51.148;13.738;2023-03-12T01:58:39;4.50;;;1.55;;
25249;SDS011;13201;51.148;13.738;2023-03-12T02:01:10;3.15;;;1.67;;
25249;SDS011;13201;51.148;13.738;2023-03-12T02:03:38;4.78;;;1.77;;
25249;SDS011;13201;51.148;13.738;2023-03-12T02:08:34;4.38;;;1.52;;
25249;SDS011;13201;51.148;13.738;2023-03-12T02:11:03;4.47;;;1.40;;
25249;SDS011;13201;51.148;13.738;2023-03-12T02:13:29;3.67;;;1.40;;
25249;SDS011;13201;51.148;13.738;2023-03-12T02:15:55;3.85;;;1.70;;
25249;SDS011;13201;51.148;13.738;2023-03-12T02:18:21;6.88;;;2.17;;
25249;SDS011;13201;51.148;13.738;2023-03-12T02:25:50;8.00;;;1.40;;
25249;SDS011;13201;51.148;13.738;2023-03-12T02:28:17;2.65;;;1.25;;
25249;SDS011;13201;51.148;13.738;2023-03-12T02:30:46;2.85;;;1.45;;
25249;SDS011;13201;51.148;13.738;2023-03-12T02:33:14;3.38;;;1.58;;
25249;SDS011;13201;51.148;13.738;2023-03-12T02:35:40;4.27;;;1.60;;
25249;SDS011;13201;51.148;13.738;2023-03-12T02:43:35;6.63;;;1.80;;
25249;SDS011;13201;51.148;13.738;2023-03-12T02:46:01;2.20;;;1.35;;
25249;SDS011;13201;51.148;13.738;2023-03-12T02:48:27;4.17;;;1.70;;
25249;SDS011;13201;51.148;13.738;2023-03-12T02:50:52;5.43;;;1.35;;
25249;SDS011;13201;51.148;13.738;2023-03-12T02:53:18;1.63;;;1.20;;
25249;SDS011;13201;51.148;13.738;2023-03-12T02:55:44;1.70;;;1.03;;
25249;SDS011;13201;51.148;13.738;2023-03-12T02:58:09;4.13;;;1.20;;
25249;SDS011;13201;51.148;13.738;2023-03-12T03:00:35;4.85;;;1.40;;
25249;SDS011;13201;51.148;13.738;2023-03-12T03:03:02;6.22;;;1.55;;
25249;SDS011;13201;51.148;13.738;2023-03-12T03:05:27;3.23;;;1.30;;
25249;SDS011;13201;51.148;13.738;2023-03-12T03:07:53;2.30;;;1.50;;
25249;SDS011;13201;51.148;13.738;2023-03-12T03:10:19;3.30;;;1.30;;
25249;SDS011;13201;51.148;13.738;2023-03-12T03:12:44;4.13;;;1.30;;
25249;SDS011;13201;51.148;13.738;2023-03-12T03:15:11;1.47;;;0.90;;
25249;SDS011;13201;51.148;13.738;2023-03-12T03:17:36;2.87;;;1.10;;
25249;SDS011;13201;51.148;13.738;2023-03-12T03:20:03;2.27;;;1.03;;
25249;SDS011;13201;51.148;13.738;2023-03-12T03:22:35;2.08;;;1.30;;
25249;SDS011;13201;51.148;13.738;2023-03-12T03:25:02;6.65;;;1.27;;
25249;SDS011;13201;51.148;13.738;2023-03-12T03:27:29;5.88;;;1.50;;
25249;SDS011;13201;51.148;13.738;2023-03-12T03:29:54;3.03;;;1.20;;
25249;SDS011;13201;51.148;13.738;2023-03-12T03:32:20;2.58;;;1.00;;
25249;SDS011;13201;51.148;13.738;2023-03-12T03:34:46;2.53;;;1.40;;
25249;SDS011;13201;51.148;13.738;2023-03-12T03:37:11;3.87;;;1.40;;
25249;SDS011;13201;51.148;13.738;2023-03-12T03:39:37;3.30;;;1.20;;
25249;SDS011;13201;51.148;13.738;2023-03-12T03:42:03;1.75;;;1.20;;
25249;SDS011;13201;51.148;13.738;2023-03-12T03:44:28;3.08;;;1.45;;
25249;SDS011;13201;51.148;13.738;2023-03-12T03:46:54;5.32;;;1.55;;
25249;SDS011;13201;51.148;13.738;2023-03-12T03:49:20;2.40;;;1.27;;
25249;SDS011;13201;51.148;13.738;2023-03-12T03:51:47;3.03;;;1.30;;
25249;SDS011;13201;51.148;13.738;2023-03-12T03:54:14;2.47;;;1.00;;
25249;SDS011;13201;51.148;13.738;2023-03-12T03:56:40;3.77;;;1.23;;
25249;SDS011;13201;51.148;13.738;2023-03-12T03:59:05;2.43;;;1.20;;
25249;SDS011;13201;51.148;13.738;2023-03-12T04:01:31;2.85;;;1.63;;
25249;SDS011;13201;51.148;13.738;2023-03-12T04:03:57;3.60;;;1.50;;
25249;SDS011;13201;51.148;13.738;2023-03-12T04:06:23;2.72;;;1.00;;
25249;SDS011;13201;51.148;13.738;2023-03-12T04:08:49;4.50;;;1.10;;
25249;SDS011;13201;51.148;13.738;2023-03-12T04:11:16;2.63;;;1.00;;
25249;SDS011;13201;51.148;13.738;2023-03-12T04:13:43;4.22;;;1.35;;
25249;SDS011;13201;51.148;13.738;2023-03-12T04:16:09;3.63;;;0.95;;
25249;SDS011;13201;51.148;13.738;2023-03-12T04:18:36;2.90;;;1.23;;
25249;SDS011;13201;51.148;13.738;2023-03-12T04:21:03;3.70;;;1.20;;
25249;SDS011;13201;51.148;13.738;2023-03-12T04:23:30;3.42;;;1.17;;
25249;SDS011;13201;51.148;13.738;2023-03-12T04:25:56;2.75;;;0.90;;
25249;SDS011;13201;51.148;13.738;2023-03-12T04:28:22;2.73;;;1.17;;
25249;SDS011;13201;51.148;13.738;2023-03-12T04:30:58;4.03;;;1.10;;
25249;SDS011;13201;51.148;13.738;2023-03-12T04:33:28;2.05;;;0.85;;
25249;SDS011;13201;51.148;13.738;2023-03-12T04:35:56;3.53;;;1.00;;
25249;SDS011;13201;51.148;13.738;2023-03-12T04:38:23;4.38;;;1.33;;
25249;SDS011;13201;51.148;13.738;2023-03-12T04:40:59;2.17;;;1.10;;
25249;SDS011;13201;51.148;13.738;2023-03-12T04:43:28;3.33;;;0.98;;
25249;SDS011;13201;51.148;13.738;2023-03-12T04:45:55;5.30;;;1.00;;
25249;SDS011;13201;51.148;13.738;2023-03-12T04:48:21;2.83;;;1.08;;
25249;SDS011;13201;51.148;13.738;2023-03-12T04:50:48;5.43;;;1.52;;
25249;SDS011;13201;51.148;13.738;2023-03-12T04:53:14;4.07;;;1.00;;
25249;SDS011;13201;51.148;13.738;2023-03-12T04:55:39;2.92;;;1.23;;
25249;SDS011;13201;51.148;13.738;2023-03-12T04:58:05;2.43;;;1.20;;
25249;SDS011;13201;51.148;13.738;2023-03-12T05:00:31;2.40;;;1.00;;
25249;SDS011;13201;51.148;13.738;2023-03-12T05:02:57;2.92;;;0.80;;
25249;SDS011;13201;51.148;13.738;2023-03-12T05:05:22;3.87;;;1.30;;
25249;SDS011;13201;51.148;13.738;2023-03-12T05:07:48;1.35;;;0.90;;
25249;SDS011;13201;51.148;13.738;2023-03-12T05:10:14;1.63;;;1.00;;
25249;SDS011;13201;51.148;13.738;2023-03-12T05:12:39;4.13;;;1.25;;
25249;SDS011;13201;51.148;13.738;2023-03-12T05:15:05;3.15;;;1.00;;
25249;SDS011;13201;51.148;13.738;2023-03-12T05:17:31;1.50;;;1.15;;
25249;SDS011;13201;51.148;13.738;2023-03-12T05:19:57;2.47;;;1.07;;
25249;SDS011;13201;51.148;13.738;2023-03-12T05:22:23;1.40;;;0.63;;
25249;SDS011;13201;51.148;13.738;2023-03-12T05:24:49;2.97;;;1.10;;
25249;SDS011;13201;51.148;13.738;2023-03-12T05:27:15;2.00;;;0.93;;
25249;SDS011;13201;51.148;13.738;2023-03-12T05:29:40;0.88;;;0.57;;
25249;SDS011;13201;51.148;13.738;2023-03-12T05:32:06;1.33;;;0.77;;
25249;SDS011;13201;51.148;13.738;2023-03-12T05:34:32;2.57;;;1.00;;
25249;SDS011;13201;51.148;13.738;2023-03-12T05:36:58;5.07;;;0.77;;
25249;SDS011;13201;51.148;13.738;2023-03-12T05:39:24;1.47;;;1.00;;
25249;SDS011;13201;51.148;13.738;2023-03-12T05:41:50;1.38;;;0.88;;
25249;SDS011;13201;51.148;13.738;2023-03-12T05:44:20;2.05;;;0.82;;
25249;SDS011;13201;51.148;13.738;2023-03-12T05:46:47;1.25;;;0.73;;
25249;SDS011;13201;51.148;13.738;2023-03-12T05:49:13;1.60;;;0.88;;
25249;SDS011;13201;51.148;13.738;2023-03-12T05:51:39;2.55;;;1.00;;
25249;SDS011;13201;51.148;13.738;2023-03-12T05:54:05;3.92;;;0.82;;
25249;SDS011;13201;51.148;13.738;2023-03-12T05:56:31;3.57;;;1.03;;
25249;SDS011;13201;51.148;13.738;2023-03-12T05:58:57;1.05;;;0.65;;
25249;SDS011;13201;51.148;13.738;2023-03-12T06:01:24;3.37;;;1.13;;
25249;SDS011;13201;51.148;13.738;2023-03-12T06:03:51;3.47;;;1.27;;
25249;SDS011;13201;51.148;13.738;2023-03-12T06:06:17;2.03;;;1.00;;
25249;SDS011;13201;51.148;13.738;2023-03-12T06:08:43;2.03;;;1.25;;
25249;SDS011;13201;51.148;13.738;2023-03-12T06:11:09;1.33;;;0.80;;
25249;SDS011;13201;51.148;13.738;2023-03-12T06:13:35;1.77;;;0.75;;
25249;SDS011;13201;51.148;13.738;2023-03-12T06:16:08;2.17;;;1.00;;
25249;SDS011;13201;51.148;13.738;2023-03-12T06:18:40;2.50;;;1.10;;
25249;SDS011;13201;51.148;13.738;2023-03-12T06:21:10;1.17;;;0.70;;
25249;SDS011;13201;51.148;13.738;2023-03-12T06:23:38;2.72;;;1.27;;
25249;SDS011;13201;51.148;13.738;2023-03-12T06:26:04;2.67;;;1.47;;
25249;SDS011;13201;51.148;13.738;2023-03-12T06:28:30;1.40;;;1.00;;
25249;SDS011;13201;51.148;13.738;2023-03-12T06:33:22;3.80;;;1.27;;
25249;SDS011;13201;51.148;13.738;2023-03-12T06:35:48;3.00;;;1.30;;
25249;SDS011;13201;51.148;13.738;2023-03-12T06:38:18;6.00;;;2.17;;
25249;SDS011;13201;51.148;13.738;2023-03-12T06:40:51;2.83;;;1.40;;
25249;SDS011;13201;51.148;13.738;2023-03-12T06:43:22;5.65;;;1.13;;
25249;SDS011;13201;51.148;13.738;2023-03-12T06:45:48;4.47;;;1.02;;
25249;SDS011;13201;51.148;13.738;2023-03-12T06:48:14;3.77;;;1.07;;
25249;SDS011;13201;51.148;13.738;2023-03-12T06:50:39;3.77;;;1.17;;
25249;SDS011;13201;51.148;13.738;2023-03-12T06:53:05;2.73;;;0.90;;
25249;SDS011;13201;51.148;13.738;2023-03-12T06:55:31;1.67;;;0.95;;
25249;SDS011;13201;51.148;13.738;2023-03-12T06:57:56;1.93;;;0.70;;
25249;SDS011;13201;51.148;13.738;2023-03-12T07:00:22;2.07;;;0.87;;
25249;SDS011;13201;51.148;13.738;2023-03-12T07:02:48;6.88;;;1.08;;
25249;SDS011;13201;51.148;13.738;2023-03-12T07:05:13;3.28;;;1.23;;
25249;SDS011;13201;51.148;13.738;2023-03-12T07:07:39;1.60;;;0.93;;
25249;SDS011;13201;51.148;13.738;2023-03-12T07:10:05;1.90;;;0.87;;
25249;SDS011;13201;51.148;13.738;2023-03-12T07:12:31;4.47;;;0.90;;
25249;SDS011;13201;51.148;13.738;2023-03-12T07:14:57;2.60;;;0.98;;
25249;SDS011;13201;51.148;13.738;2023-03-12T07:17:23;0.80;;;0.60;;
25249;SDS011;13201;51.148;13.738;2023-03-12T07:19:50;1.27;;;0.80;;
25249;SDS011;13201;51.148;13.738;2023-03-12T07:22:16;1.00;;;0.60;;
25249;SDS011;13201;51.148;13.738;2023-03-12T07:24:42;2.50;;;0.65;;
25249;SDS011;13201;51.148;13.738;2023-03-12T07:27:07;2.03;;;1.00;;
25249;SDS011;13201;51.148;13.738;2023-03-12T07:29:33;2.07;;;0.73;;
25249;SDS011;13201;51.148;13.738;2023-03-12T07:31:59;4.90;;;0.85;;
25249;SDS011;13201;51.148;13.738;2023-03-12T07:34:24;4.18;;;1.10;;
25249;SDS011;13201;51.148;13.738;2023-03-12T07:36:50;2.65;;;1.65;;
25249;SDS011;13201;51.148;13.738;2023-03-12T07:39:16;8.43;;;1.23;;
25249;SDS011;13201;51.148;13.738;2023-03-12T07:41:41;1.73;;;0.82;;
25249;SDS011;13201;51.148;13.738;2023-03-12T07:44:07;4.45;;;1.08;;
25249;SDS011;13201;51.148;13.738;2023-03-12T07:46:33;1.43;;;0.90;;
25249;SDS011;13201;51.148;13.738;2023-03-12T07:48:59;7.47;;;1.20;;
25249;SDS011;13201;51.148;13.738;2023-03-12T07:51:25;3.83;;;0.90;;
25249;SDS011;13201;51.148;13.738;2023-03-12T07:53:51;4.40;;;0.90;;
25249;SDS011;13201;51.148;13.738;2023-03-12T07:56:17;1.63;;;1.00;;
25249;SDS011;13201;51.148;13.738;2023-03-12T07:58:42;6.43;;;1.05;;
25249;SDS011;13201;51.148;13.738;2023-03-12T08:01:08;3.97;;;1.10;;
25249;SDS011;13201;51.148;13.738;2023-03-12T08:03:34;2.67;;;0.85;;
25249;SDS011;13201;51.148;13.738;2023-03-12T08:06:00;2.15;;;1.08;;
25249;SDS011;13201;51.148;13.738;2023-03-12T08:08:27;1.65;;;0.90;;
25249;SDS011;13201;51.148;13.738;2023-03-12T08:10:53;1.75;;;0.90;;
25249;SDS011;13201;51.148;13.738;2023-03-12T08:13:19;1.80;;;1.13;;
25249;SDS011;13201;51.148;13.738;2023-03-12T08:15:45;2.08;;;0.80;;
25249;SDS011;13201;51.148;13.738;2023-03-12T08:18:10;3.80;;;0.93;;
25249;SDS011;13201;51.148;13.738;2023-03-12T08:20:36;2.13;;;0.90;;
25249;SDS011;13201;51.148;13.738;2023-03-12T08:23:02;4.35;;;1.27;;
25249;SDS011;13201;51.148;13.738;2023-03-12T08:25:27;1.75;;;0.80;;
25249;SDS011;13201;51.148;13.738;2023-03-12T08:27:53;2.50;;;0.73;;
25249;SDS011;13201;51.148;13.738;2023-03-12T08:30:19;3.13;;;0.80;;
25249;SDS011;13201;51.148;13.738;2023-03-12T08:32:45;1.75;;;0.95;;
25249;SDS011;13201;51.148;13.738;2023-03-12T08:35:11;3.55;;;1.05;;
25249;SDS011;13201;51.148;13.738;2023-03-12T08:37:36;1.88;;;0.98;;
25249;SDS011;13201;51.148;13.738;2023-03-12T08:40:02;2.60;;;1.17;;
25249;SDS011;13201;51.148;13.738;2023-03-12T08:42:37;3.70;;;0.98;;
25249;SDS011;13201;51.148;13.738;2023-03-12T08:45:07;5.28;;;1.20;;
25249;SDS011;13201;51.148;13.738;2023-03-12T08:47:34;1.88;;;0.93;;
25249;SDS011;13201;51.148;13.738;2023-03-12T08:50:01;2.00;;;1.20;;
25249;SDS011;13201;51.148;13.738;2023-03-12T08:52:27;7.00;;;1.70;;
25249;SDS011;13201;51.148;13.738;2023-03-12T08:54:53;2.67;;;1.17;;
25249;SDS011;13201;51.148;13.738;2023-03-12T08:57:18;2.47;;;1.42;;
25249;SDS011;13201;51.148;13.738;2023-03-12T08:59:44;2.60;;;1.30;;
25249;SDS011;13201;51.148;13.738;2023-03-12T09:02:11;1.80;;;1.10;;
25249;SDS011;13201;51.148;13.738;2023-03-12T09:07:02;3.60;;;1.07;;
25249;SDS011;13201;51.148;13.738;2023-03-12T09:09:29;6.00;;;1.25;;
25249;SDS011;13201;51.148;13.738;2023-03-12T09:11:55;2.78;;;1.02;;
25249;SDS011;13201;51.148;13.738;2023-03-12T09:14:21;3.03;;;1.20;;
25249;SDS011;13201;51.148;13.738;2023-03-12T09:16:47;2.15;;;1.10;;
25249;SDS011;13201;51.148;13.738;2023-03-12T09:19:13;2.67;;;1.00;;
25249;SDS011;13201;51.148;13.738;2023-03-12T09:21:39;2.43;;;1.00;;
25249;SDS011;13201;51.148;13.738;2023-03-12T09:24:05;3.67;;;1.15;;
25249;SDS011;13201;51.148;13.738;2023-03-12T09:26:31;2.05;;;0.88;;
25249;SDS011;13201;51.148;13.738;2023-03-12T09:28:57;5.23;;;1.27;;
25249;SDS011;13201;51.148;13.738;2023-03-12T09:31:23;1.42;;;1.00;;
25249;SDS011;13201;51.148;13.738;2023-03-12T09:33:50;3.20;;;1.07;;
25249;SDS011;13201;51.148;13.738;2023-03-12T09:36:15;1.47;;;0.90;;
25249;SDS011;13201;51.148;13.738;2023-03-12T09:38:41;1.35;;;0.90;;
25249;SDS011;13201;51.148;13.738;2023-03-12T09:41:17;1.27;;;0.50;;
25249;SDS011;13201;51.148;13.738;2023-03-12T09:44:33;2.92;;;1.23;;
25249;SDS011;13201;51.148;13.738;2023-03-12T09:46:39;3.08;;;1.50;;
25249;SDS011;13201;51.148;13.738;2023-03-12T09:49:23;3.25;;;1.20;;
25249;SDS011;13201;51.148;13.738;2023-03-12T09:51:56;2.67;;;0.93;;
25249;SDS011;13201;51.148;13.738;2023-03-12T09:54:43;1.88;;;0.98;;
25249;SDS011;13201;51.148;13.738;2023-03-12T09:57:31;1.63;;;1.10;;
25249;SDS011;13201;51.148;13.738;2023-03-12T09:59:57;2.72;;;1.50;;
25249;SDS011;13201;51.148;13.738;2023-03-12T10:02:27;2.08;;;1.13;;
25249;SDS011;13201;51.148;13.738;2023-03-12T10:07:45;2.40;;;1.02;;
25249;SDS011;13201;51.148;13.738;2023-03-12T10:13:01;1.13;;;0.60;;
25249;SDS011;13201;51.148;13.738;2023-03-12T10:21:28;2.72;;;0.88;;
25249;SDS011;13201;51.148;13.738;2023-03-12T10:24:06;1.15;;;0.47;;
25249;SDS011;13201;51.148;13.738;2023-03-12T10:26:39;1.00;;;0.55;;
25249;SDS011;13201;51.148;13.738;2023-03-12T10:29:23;0.80;;;0.60;;
25249;SDS011;13201;51.148;13.738;2023-03-12T10:34:38;3.47;;;0.90;;
25249;SDS011;13201;51.148;13.738;2023-03-12T10:37:19;2.58;;;0.70;;
25249;SDS011;13201;51.148;13.738;2023-03-12T10:40:01;4.13;;;0.70;;
25249;SDS011;13201;51.148;13.738;2023-03-12T10:42:29;3.60;;;0.80;;
25249;SDS011;13201;51.148;13.738;2023-03-12T10:44:59;1.38;;;0.80;;
25249;SDS011;13201;51.148;13.738;2023-03-12T10:47:35;4.97;;;0.77;;
25249;SDS011;13201;51.148;13.738;2023-03-12T10:50:11;2.70;;;0.80;;
25249;SDS011;13201;51.148;13.738;2023-03-12T10:52:40;2.63;;;0.70;;
25249;SDS011;13201;51.148;13.738;2023-03-12T10:55:18;1.58;;;0.68;;
25249;SDS011;13201;51.148;13.738;2023-03-12T10:57:47;4.03;;;0.90;;
25249;SDS011;13201;51.148;13.738;2023-03-12T11:00:17;1.38;;;0.77;;
25249;SDS011;13201;51.148;13.738;2023-03-12T11:02:45;1.35;;;0.80;;
25249;SDS011;13201;51.148;13.738;2023-03-12T11:05:23;1.15;;;0.82;;
25249;SDS011;13201;51.148;13.738;2023-03-12T11:07:53;1.00;;;0.68;;
25249;SDS011;13201;51.148;13.738;2023-03-12T11:10:21;1.27;;;0.63;;
25249;SDS011;13201;51.148;13.738;2023-03-12T11:13:36;1.13;;;0.82;;
25249;SDS011;13201;51.148;13.738;2023-03-12T11:15:49;1.58;;;0.80;;
25249;SDS011;13201;51.148;13.738;2023-03-12T11:18:18;1.08;;;0.80;;
25249;SDS011;13201;51.148;13.738;2023-03-12T11:21:10;1.15;;;0.80;;
25249;SDS011;13201;51.148;13.738;2023-03-12T11:23:40;2.00;;;0.63;;
25249;SDS011;13201;51.148;13.738;2023-03-12T11:26:18;1.13;;;0.60;;
25249;SDS011;13201;51.148;13.738;2023-03-12T11:29:32;1.52;;;0.70;;
25249;SDS011;13201;51.148;13.738;2023-03-12T11:31:41;1.40;;;0.60;;
25249;SDS011;13201;51.148;13.738;2023-03-12T11:34:19;0.98;;;0.55;;
25249;SDS011;13201;51.148;13.738;2023-03-12T11:36:58;1.33;;;0.70;;
25249;SDS011;13201;51.148;13.738;2023-03-12T11:42:03;0.60;;;0.47;;
25249;SDS011;13201;51.148;13.738;2023-03-12T11:47:43;4.35;;;1.00;;
25249;SDS011;13201;51.148;13.738;2023-03-12T11:53:22;3.95;;;1.02;;
25249;SDS011;13201;51.148;13.738;2023-03-12T11:59:11;1.70;;;0.80;;
25249;SDS011;13201;51.148;13.738;2023-03-12T12:07:32;14.10;;;6.05;;
25249;SDS011;13201;51.148;13.738;2023-03-12T12:20:42;2.88;;;0.95;;
25249;SDS011;13201;51.148;13.738;2023-03-12T12:23:26;1.08;;;0.60;;
25249;SDS011;13201;51.148;13.738;2023-03-12T12:26:01;1.52;;;0.90;;
25249;SDS011;13201;51.148;13.738;2023-03-12T12:31:47;4.15;;;1.63;;
25249;SDS011;13201;51.148;13.738;2023-03-12T12:40:30;3.80;;;1.10;;
25249;SDS011;13201;51.148;13.738;2023-03-12T12:48:19;4.18;;;1.38;;
25249;SDS011;13201;51.148;13.738;2023-03-12T12:50:51;2.20;;;0.80;;
25249;SDS011;13201;51.148;13.738;2023-03-12T12:53:20;2.50;;;1.13;;
25249;SDS011;13201;51.148;13.738;2023-03-12T13:01:03;3.28;;;1.20;;
25249;SDS011;13201;51.148;13.738;2023-03-12T13:03:28;2.10;;;1.05;;
25249;SDS011;13201;51.148;13.738;2023-03-12T13:06:02;2.80;;;1.23;;
25249;SDS011;13201;51.148;13.738;2023-03-12T13:08:34;4.40;;;1.20;;
25249;SDS011;13201;51.148;13.738;2023-03-12T13:14:33;2.20;;;1.40;;
25249;SDS011;13201;51.148;13.738;2023-03-12T13:16:35;2.75;;;1.10;;
25249;SDS011;13201;51.148;13.738;2023-03-12T13:19:19;2.92;;;1.30;;
25249;SDS011;13201;51.148;13.738;2023-03-12T13:21:53;2.35;;;1.20;;
25249;SDS011;13201;51.148;13.738;2023-03-12T13:26:57;3.58;;;1.45;;
25249;SDS011;13201;51.148;13.738;2023-03-12T13:29:57;3.03;;;1.23;;
25249;SDS011;13201;51.148;13.738;2023-03-12T13:43:13;3.25;;;1.45;;
25249;SDS011;13201;51.148;13.738;2023-03-12T13:48:31;2.88;;;1.17;;
25249;SDS011;13201;51.148;13.738;2023-03-12T13:51:20;2.70;;;1.45;;
25249;SDS011;13201;51.148;13.738;2023-03-12T13:53:48;2.20;;;1.17;;
25249;SDS011;13201;51.148;13.738;2023-03-12T13:56:25;2.28;;;1.13;;
25249;SDS011;13201;51.148;13.738;2023-03-12T13:58:55;3.47;;;1.40;;
25249;SDS011;13201;51.148;13.738;2023-03-12T14:01:31;6.43;;;1.77;;
25249;SDS011;13201;51.148;13.738;2023-03-12T14:04:10;2.17;;;1.30;;
25249;SDS011;13201;51.148;13.738;2023-03-12T14:06:49;4.55;;;1.33;;
25249;SDS011;13201;51.148;13.738;2023-03-12T14:17:35;2.80;;;1.10;;
25249;SDS011;13201;51.148;13.738;2023-03-12T14:22:31;0.98;;;0.73;;
25249;SDS011;13201;51.148;13.738;2023-03-12T14:25:04;2.15;;;1.02;;
25249;SDS011;13201;51.148;13.738;2023-03-12T14:27:40;5.25;;;1.30;;
25249;SDS011;13201;51.148;13.738;2023-03-12T14:30:20;5.40;;;1.10;;
25249;SDS011;13201;51.148;13.738;2023-03-12T14:32:49;2.28;;;1.00;;
25249;SDS011;13201;51.148;13.738;2023-03-12T14:40:32;1.83;;;0.93;;
25249;SDS011;13201;51.148;13.738;2023-03-12T14:42:59;2.28;;;0.85;;
25249;SDS011;13201;51.148;13.738;2023-03-12T14:45:25;4.63;;;1.00;;
25249;SDS011;13201;51.148;13.738;2023-03-12T14:47:55;2.27;;;1.10;;
25249;SDS011;13201;51.148;13.738;2023-03-12T14:50:26;1.40;;;0.88;;
25249;SDS011;13201;51.148;13.738;2023-03-12T14:56:00;2.25;;;1.08;;
25249;SDS011;13201;51.148;13.738;2023-03-12T14:58:41;2.00;;;0.90;;
25249;SDS011;13201;51.148;13.738;2023-03-12T15:01:11;2.03;;;1.00;;
25249;SDS011;13201;51.148;13.738;2023-03-12T15:03:43;1.65;;;1.08;;
25249;SDS011;13201;51.148;13.738;2023-03-12T15:06:18;2.30;;;1.25;;
25249;SDS011;13201;51.148;13.738;2023-03-12T15:08:55;2.90;;;0.95;;
25249;SDS011;13201;51.148;13.738;2023-03-12T15:11:22;3.60;;;1.48;;
25249;SDS011;13201;51.148;13.738;2023-03-12T15:13:51;3.08;;;1.30;;
25249;SDS011;13201;51.148;13.738;2023-03-12T15:16:19;2.85;;;1.38;;
25249;SDS011;13201;51.148;13.738;2023-03-12T15:21:13;3.50;;;1.00;;
25249;SDS011;13201;51.148;13.738;2023-03-12T15:23:40;2.05;;;1.17;;
25249;SDS011;13201;51.148;13.738;2023-03-12T15:26:30;2.50;;;1.25;;
25249;SDS011;13201;51.148;13.738;2023-03-12T15:29:18;3.05;;;1.20;;
25249;SDS011;13201;51.148;13.738;2023-03-12T15:31:50;1.70;;;1.20;;
25249;SDS011;13201;51.148;13.738;2023-03-12T15:36:58;2.53;;;1.73;;
25249;SDS011;13201;51.148;13.738;2023-03-12T15:39:46;4.95;;;2.25;;
25249;SDS011;13201;51.148;13.738;2023-03-12T15:42:15;4.07;;;2.17;;
25249;SDS011;13201;51.148;13.738;2023-03-12T15:44:47;6.10;;;1.75;;
25249;SDS011;13201;51.148;13.738;2023-03-12T15:47:22;2.78;;;1.88;;
25249;SDS011;13201;51.148;13.738;2023-03-12T15:49:52;6.10;;;1.98;;
25249;SDS011;13201;51.148;13.738;2023-03-12T15:52:25;4.75;;;2.28;;
25249;SDS011;13201;51.148;13.738;2023-03-12T15:57:26;4.72;;;2.20;;
25249;SDS011;13201;51.148;13.738;2023-03-12T16:02:36;5.88;;;1.92;;
25249;SDS011;13201;51.148;13.738;2023-03-12T16:05:26;4.63;;;2.47;;
25249;SDS011;13201;51.148;13.738;2023-03-12T16:07:55;6.30;;;3.15;;
25249;SDS011;13201;51.148;13.738;2023-03-12T16:10:22;6.05;;;2.50;;
25249;SDS011;13201;51.148;13.738;2023-03-12T16:12:52;4.50;;;2.17;;
25249;SDS011;13201;51.148;13.738;2023-03-12T16:15:28;3.95;;;2.10;;
25249;SDS011;13201;51.148;13.738;2023-03-12T16:17:56;3.60;;;2.13;;
25249;SDS011;13201;51.148;13.738;2023-03-12T16:20:22;2.60;;;2.00;;
25249;SDS011;13201;51.148;13.738;2023-03-12T16:22:48;3.95;;;2.13;;
25249;SDS011;13201;51.148;13.738;2023-03-12T16:25:14;5.47;;;2.22;;
25249;SDS011;13201;51.148;13.738;2023-03-12T16:27:49;5.30;;;3.15;;
25249;SDS011;13201;51.148;13.738;2023-03-12T16:30:27;5.38;;;2.70;;
25249;SDS011;13201;51.148;13.738;2023-03-12T16:32:54;6.85;;;2.33;;
25249;SDS011;13201;51.148;13.738;2023-03-12T16:35:21;5.60;;;2.22;;
25249;SDS011;13201;51.148;13.738;2023-03-12T16:37:47;6.25;;;2.38;;
25249;SDS011;13201;51.148;13.738;2023-03-12T16:40:13;7.93;;;2.43;;
25249;SDS011;13201;51.148;13.738;2023-03-12T16:45:08;3.60;;;2.08;;
25249;SDS011;13201;51.148;13.738;2023-03-12T16:47:37;4.65;;;2.25;;
25249;SDS011;13201;51.148;13.738;2023-03-12T16:50:09;5.80;;;2.40;;
25249;SDS011;13201;51.148;13.738;2023-03-12T16:52:41;4.18;;;2.35;;
25249;SDS011;13201;51.148;13.738;2023-03-12T16:55:07;5.25;;;2.65;;
25249;SDS011;13201;51.148;13.738;2023-03-12T16:57:34;3.83;;;2.03;;
25249;SDS011;13201;51.148;13.738;2023-03-12T17:00:03;8.70;;;3.03;;
25249;SDS011;13201;51.148;13.738;2023-03-12T17:02:32;7.07;;;3.20;;
25249;SDS011;13201;51.148;13.738;2023-03-12T17:04:58;8.30;;;3.15;;
25249;SDS011;13201;51.148;13.738;2023-03-12T17:07:24;3.50;;;2.38;;
25249;SDS011;13201;51.148;13.738;2023-03-12T17:09:50;4.78;;;2.80;;
25249;SDS011;13201;51.148;13.738;2023-03-12T17:12:37;4.53;;;2.20;;
25249;SDS011;13201;51.148;13.738;2023-03-12T17:15:04;6.60;;;2.58;;
25249;SDS011;13201;51.148;13.738;2023-03-12T17:17:35;4.10;;;2.53;;
25249;SDS011;13201;51.148;13.738;2023-03-12T17:20:01;4.05;;;2.70;;
25249;SDS011;13201;51.148;13.738;2023-03-12T17:22:31;6.18;;;2.90;;
25249;SDS011;13201;51.148;13.738;2023-03-12T17:24:57;3.20;;;2.38;;